Time,TemperatureF,DewpointF,PressureIn,WindDirection,WindDirectionDegrees,WindSpeedMPH,WindSpeedGustMPH,Humidity,HourlyPrecipIn,Conditions,Clouds,dailyrainin,SolarRadiationWatts/m^2,SoftwareType,DateUTC
2018-02-18 00:07:00,47.3,45.7,-100.00,WNW,291,0.0,0.0,94,0.00,,,0.00,0.00,Weather logger V3.0.,2018-02-18 05:07:00,
2018-02-18 00:13:00,47.3,45.7,30.12,NW,305,2.5,2.5,94,0.00,,,0.00,0.00,Weather logger V3.0.,2018-02-18 05:13:00,
2018-02-18 00:25:00,47.3,45.7,-100.00,NNW,329,0.2,2.5,94,0.00,,,0.00,0.00,Weather logger V3.0.,2018-02-18 05:25:00,
2018-02-18 00:30:00,47.1,45.5,30.12,NNW,344,0.0,0.0,94,0.00,,,0.00,0.00,Weather logger V3.0.,2018-02-18 05:30:00,
2018-02-18 00:35:00,47.1,45.5,30.13,NNW,348,0.0,0.0,94,0.00,,,0.00,0.00,Weather logger V3.0.,2018-02-18 05:35:00,
2018-02-18 00:41:00,47.1,45.5,30.13,North,354,0.0,0.0,94,0.00,,,0.00,0.00,Weather logger V3.0.,2018-02-18 05:41:00,
2018-02-18 00:46:00,47.1,45.5,30.13,NNW,327,0.0,0.0,94,0.00,,,0.00,0.00,Weather logger V3.0.,2018-02-18 05:46:00,
2018-02-18 00:51:00,46.9,45.3,30.13,NW,319,2.0,4.9,94,0.00,,,0.00,0.00,Weather logger V3.0.,2018-02-18 05:51:00,
2018-02-18 00:56:00,46.9,45.3,30.13,NW,319,0.0,0.0,94,0.00,,,0.00,0.00,Weather logger V3.0.,2018-02-18 05:56:00,
2018-02-18 01:11:00,46.9,45.3,-100.00,NW,317,0.0,0.0,94,0.00,,,0.00,0.00,Weather logger V3.0.,2018-02-18 06:11:00,
2018-02-18 01:17:00,46.9,45.3,30.14,NNW,343,0.0,0.0,94,0.07,,,0.01,0.00,Weather logger V3.0.,2018-02-18 06:17:00,
2018-02-18 01:22:00,46.9,45.3,30.13,NW,309,0.0,0.0,94,0.07,,,0.01,0.00,Weather logger V3.0.,2018-02-18 06:22:00,
2018-02-18 01:27:00,46.9,45.3,30.13,North,358,0.0,0.0,94,0.00,,,0.01,0.00,Weather logger V3.0.,2018-02-18 06:27:00,
2018-02-18 01:32:00,46.9,45.3,30.14,NW,315,0.0,0.0,94,0.00,,,0.01,0.00,Weather logger V3.0.,2018-02-18 06:32:00,
2018-02-18 01:37:00,46.9,45.3,30.14,North,1,0.0,0.0,94,0.00,,,0.01,0.00,Weather logger V3.0.,2018-02-18 06:37:00,
2018-02-18 01:42:00,46.9,45.3,30.14,NNW,338,0.0,0.0,94,0.00,,,0.01,0.00,Weather logger V3.0.,2018-02-18 06:42:00,
2018-02-18 01:47:00,46.9,45.3,30.15,East,91,0.0,0.0,94,0.00,,,0.01,0.00,Weather logger V3.0.,2018-02-18 06:47:00,
2018-02-18 02:00:00,46.9,45.3,-100.00,North,9,0.0,0.0,94,-99.99,,,0.01,0.00,Weather logger V3.0.,2018-02-18 07:00:00,
2018-02-18 02:05:00,46.8,45.1,30.16,NNW,348,0.2,2.5,94,0.00,,,0.01,0.00,Weather logger V3.0.,2018-02-18 07:05:00,
2018-02-18 02:11:00,46.8,45.1,30.16,NW,320,0.2,2.5,94,0.00,,,0.01,0.00,Weather logger V3.0.,2018-02-18 07:11:00,
2018-02-18 02:16:00,46.8,45.1,30.16,North,355,0.0,0.0,94,0.00,,,0.01,0.00,Weather logger V3.0.,2018-02-18 07:16:00,
2018-02-18 02:32:00,46.6,45.0,-100.00,NNW,345,0.0,0.0,94,-99.99,,,0.01,0.00,Weather logger V3.0.,2018-02-18 07:32:00,
2018-02-18 02:37:00,46.6,44.6,30.16,NNW,348,0.0,0.0,93,0.00,,,0.01,0.00,Weather logger V3.0.,2018-02-18 07:37:00,
2018-02-18 02:48:00,-999.9,-99.9,30.17,North,-9999,-999.9,-999.9,-9999,-99.99,,,0.01,-9999,Weather logger V3.0.,2018-02-18 07:48:00,